sensor_id;sensor_type;location;lat;lon;timestamp;P1;durP1;ratioP1;P2;durP2;ratioP2
54247;SDS011;40161;39.768;2.722;2022-08-18T00:02:24;6.95;;;3.60;;
54247;SDS011;40161;39.768;2.722;2022-08-18T00:04:52;8.98;;;3.80;;
54247;SDS011;40161;39.768;2.722;2022-08-18T00:07:23;11.35;;;3.88;;
54247;SDS011;40161;39.768;2.722;2022-08-18T00:09:53;8.68;;;4.18;;
54247;SDS011;40161;39.768;2.722;2022-08-18T00:14:46;10.90;;;3.92;;
54247;SDS011;40161;39.768;2.722;2022-08-18T00:17:13;15.38;;;3.85;;
54247;SDS011;40161;39.768;2.722;2022-08-18T00:19:39;17.10;;;4.20;;
54247;SDS011;40161;39.768;2.722;2022-08-18T00:22:04;11.85;;;3.13;;
54247;SDS011;40161;39.768;2.722;2022-08-18T00:24:30;15.75;;;4.38;;
54247;SDS011;40161;39.768;2.722;2022-08-18T00:26:56;21.60;;;4.20;;
54247;SDS011;40161;39.768;2.722;2022-08-18T00:32:46;29.52;;;6.63;;
54247;SDS011;40161;39.768;2.722;2022-08-18T00:41:06;18.13;;;4.85;;
54247;SDS011;40161;39.768;2.722;2022-08-18T00:46:53;13.57;;;4.05;;
54247;SDS011;40161;39.768;2.722;2022-08-18T00:49:19;12.05;;;4.05;;
54247;SDS011;40161;39.768;2.722;2022-08-18T00:51:45;7.50;;;3.15;;
54247;SDS011;40161;39.768;2.722;2022-08-18T00:54:16;12.25;;;3.97;;
54247;SDS011;40161;39.768;2.722;2022-08-18T01:00:08;13.50;;;3.70;;
54247;SDS011;40161;39.768;2.722;2022-08-18T01:02:38;12.20;;;3.60;;
54247;SDS011;40161;39.768;2.722;2022-08-18T01:08:30;7.85;;;3.38;;
54247;SDS011;40161;39.768;2.722;2022-08-18T01:14:19;11.98;;;3.22;;
54247;SDS011;40161;39.768;2.722;2022-08-18T01:20:06;7.57;;;3.17;;
54247;SDS011;40161;39.768;2.722;2022-08-18T01:26:15;8.02;;;3.08;;
54247;SDS011;40161;39.768;2.722;2022-08-18T01:32:03;8.03;;;3.10;;
54247;SDS011;40161;39.768;2.722;2022-08-18T01:34:29;7.57;;;3.00;;
54247;SDS011;40161;39.768;2.722;2022-08-18T01:36:55;8.30;;;2.75;;
54247;SDS011;40161;39.768;2.722;2022-08-18T01:42:42;9.90;;;3.50;;
54247;SDS011;40161;39.768;2.722;2022-08-18T01:48:32;7.88;;;3.10;;
54247;SDS011;40161;39.768;2.722;2022-08-18T01:50:59;9.85;;;2.90;;
54247;SDS011;40161;39.768;2.722;2022-08-18T01:53:26;6.57;;;2.40;;
54247;SDS011;40161;39.768;2.722;2022-08-18T01:55:53;8.00;;;3.47;;
54247;SDS011;40161;39.768;2.722;2022-08-18T01:58:20;14.43;;;3.50;;
54247;SDS011;40161;39.768;2.722;2022-08-18T02:00:52;11.32;;;3.20;;
54247;SDS011;40161;39.768;2.722;2022-08-18T02:03:20;13.98;;;3.50;;
54247;SDS011;40161;39.768;2.722;2022-08-18T02:05:52;10.18;;;2.92;;
54247;SDS011;40161;39.768;2.722;2022-08-18T02:08:23;12.77;;;3.05;;
54247;SDS011;40161;39.768;2.722;2022-08-18T02:14:10;17.65;;;4.10;;
54247;SDS011;40161;39.768;2.722;2022-08-18T02:19:57;15.82;;;3.50;;
54247;SDS011;40161;39.768;2.722;2022-08-18T02:22:24;6.93;;;2.75;;
54247;SDS011;40161;39.768;2.722;2022-08-18T02:28:11;5.72;;;2.13;;
54247;SDS011;40161;39.768;2.722;2022-08-18T02:30:37;4.22;;;1.98;;
54247;SDS011;40161;39.768;2.722;2022-08-18T02:33:03;6.40;;;2.25;;
54247;SDS011;40161;39.768;2.722;2022-08-18T02:35:33;4.28;;;2.15;;
54247;SDS011;40161;39.768;2.722;2022-08-18T02:37:59;4.95;;;2.88;;
54247;SDS011;40161;39.768;2.722;2022-08-18T02:40:29;4.40;;;2.90;;
54247;SDS011;40161;39.768;2.722;2022-08-18T02:42:56;6.55;;;3.13;;
54247;SDS011;40161;39.768;2.722;2022-08-18T02:45:22;5.88;;;2.88;;
54247;SDS011;40161;39.768;2.722;2022-08-18T02:47:51;5.20;;;2.80;;
54247;SDS011;40161;39.768;2.722;2022-08-18T02:50:18;6.50;;;3.30;;
54247;SDS011;40161;39.768;2.722;2022-08-18T02:52:44;8.45;;;3.72;;
54247;SDS011;40161;39.768;2.722;2022-08-18T02:55:09;6.95;;;3.63;;
54247;SDS011;40161;39.768;2.722;2022-08-18T03:00:57;7.97;;;4.67;;
54247;SDS011;40161;39.768;2.722;2022-08-18T03:03:23;7.07;;;3.72;;
54247;SDS011;40161;39.768;2.722;2022-08-18T03:05:48;5.82;;;3.83;;
54247;SDS011;40161;39.768;2.722;2022-08-18T03:08:14;7.28;;;4.00;;
54247;SDS011;40161;39.768;2.722;2022-08-18T03:10:39;6.18;;;3.50;;
54247;SDS011;40161;39.768;2.722;2022-08-18T03:13:05;8.38;;;3.95;;
54247;SDS011;40161;39.768;2.722;2022-08-18T03:15:30;9.68;;;3.70;;
54247;SDS011;40161;39.768;2.722;2022-08-18T03:17:56;10.35;;;4.18;;
54247;SDS011;40161;39.768;2.722;2022-08-18T03:23:44;8.40;;;3.58;;
54247;SDS011;40161;39.768;2.722;2022-08-18T03:26:10;8.05;;;4.32;;
54247;SDS011;40161;39.768;2.722;2022-08-18T03:28:38;6.63;;;3.67;;
54247;SDS011;40161;39.768;2.722;2022-08-18T03:31:05;8.02;;;3.92;;
54247;SDS011;40161;39.768;2.722;2022-08-18T03:33:32;7.47;;;3.80;;
54247;SDS011;40161;39.768;2.722;2022-08-18T03:36:05;7.60;;;3.67;;
54247;SDS011;40161;39.768;2.722;2022-08-18T03:38:32;7.47;;;3.10;;
54247;SDS011;40161;39.768;2.722;2022-08-18T03:40:58;6.60;;;3.10;;
54247;SDS011;40161;39.768;2.722;2022-08-18T03:43:23;11.90;;;3.40;;
54247;SDS011;40161;39.768;2.722;2022-08-18T03:45:49;10.52;;;3.83;;
54247;SDS011;40161;39.768;2.722;2022-08-18T03:48:15;9.73;;;3.88;;
54247;SDS011;40161;39.768;2.722;2022-08-18T03:50:40;8.07;;;3.40;;
54247;SDS011;40161;39.768;2.722;2022-08-18T03:53:06;7.53;;;3.42;;
54247;SDS011;40161;39.768;2.722;2022-08-18T03:55:32;6.30;;;3.40;;
54247;SDS011;40161;39.768;2.722;2022-08-18T03:58:00;7.63;;;3.35;;
54247;SDS011;40161;39.768;2.722;2022-08-18T04:00:29;5.72;;;3.75;;
54247;SDS011;40161;39.768;2.722;2022-08-18T04:02:56;6.85;;;3.70;;
54247;SDS011;40161;39.768;2.722;2022-08-18T04:05:25;10.02;;;3.45;;
54247;SDS011;40161;39.768;2.722;2022-08-18T04:07:52;8.13;;;3.90;;
54247;SDS011;40161;39.768;2.722;2022-08-18T04:13:40;7.90;;;3.72;;
54247;SDS011;40161;39.768;2.722;2022-08-18T04:16:05;7.78;;;3.60;;
54247;SDS011;40161;39.768;2.722;2022-08-18T04:18:32;8.02;;;3.72;;
54247;SDS011;40161;39.768;2.722;2022-08-18T04:21:01;7.43;;;3.40;;
54247;SDS011;40161;39.768;2.722;2022-08-18T04:23:28;7.90;;;3.22;;
54247;SDS011;40161;39.768;2.722;2022-08-18T04:25:57;10.93;;;3.30;;
54247;SDS011;40161;39.768;2.722;2022-08-18T04:28:24;5.75;;;3.00;;
54247;SDS011;40161;39.768;2.722;2022-08-18T04:30:50;9.13;;;3.00;;
54247;SDS011;40161;39.768;2.722;2022-08-18T04:33:17;7.55;;;3.30;;
54247;SDS011;40161;39.768;2.722;2022-08-18T04:35:43;10.95;;;3.33;;
54247;SDS011;40161;39.768;2.722;2022-08-18T04:38:09;8.60;;;3.45;;
54247;SDS011;40161;39.768;2.722;2022-08-18T04:40:35;9.25;;;3.50;;
54247;SDS011;40161;39.768;2.722;2022-08-18T04:43:01;8.40;;;3.28;;
54247;SDS011;40161;39.768;2.722;2022-08-18T04:45:27;9.38;;;3.00;;
54247;SDS011;40161;39.768;2.722;2022-08-18T04:47:53;7.20;;;2.90;;
54247;SDS011;40161;39.768;2.722;2022-08-18T04:50:20;8.88;;;3.40;;
54247;SDS011;40161;39.768;2.722;2022-08-18T04:52:45;9.55;;;3.40;;
54247;SDS011;40161;39.768;2.722;2022-08-18T04:55:29;8.52;;;2.85;;
54247;SDS011;40161;39.768;2.722;2022-08-18T04:57:55;6.85;;;3.58;;
54247;SDS011;40161;39.768;2.722;2022-08-18T05:00:23;7.53;;;2.88;;
54247;SDS011;40161;39.768;2.722;2022-08-18T05:02:49;8.68;;;2.90;;
54247;SDS011;40161;39.768;2.722;2022-08-18T05:05:14;8.05;;;3.10;;
54247;SDS011;40161;39.768;2.722;2022-08-18T05:07:43;7.68;;;3.10;;
54247;SDS011;40161;39.768;2.722;2022-08-18T05:10:10;7.20;;;3.20;;
54247;SDS011;40161;39.768;2.722;2022-08-18T05:12:36;8.88;;;2.90;;
54247;SDS011;40161;39.768;2.722;2022-08-18T05:15:07;7.55;;;2.80;;
54247;SDS011;40161;39.768;2.722;2022-08-18T05:20:55;7.87;;;3.47;;
54247;SDS011;40161;39.768;2.722;2022-08-18T05:23:22;8.30;;;3.45;;
54247;SDS011;40161;39.768;2.722;2022-08-18T05:25:48;6.63;;;3.30;;
54247;SDS011;40161;39.768;2.722;2022-08-18T05:28:14;9.30;;;3.25;;
54247;SDS011;40161;39.768;2.722;2022-08-18T05:30:40;8.48;;;3.20;;
54247;SDS011;40161;39.768;2.722;2022-08-18T05:33:06;7.80;;;2.92;;
54247;SDS011;40161;39.768;2.722;2022-08-18T05:35:46;7.57;;;2.75;;
54247;SDS011;40161;39.768;2.722;2022-08-18T05:40:47;9.02;;;3.60;;
54247;SDS011;40161;39.768;2.722;2022-08-18T05:43:25;8.50;;;2.85;;
54247;SDS011;40161;39.768;2.722;2022-08-18T05:45:50;9.50;;;3.22;;
54247;SDS011;40161;39.768;2.722;2022-08-18T05:51:41;8.95;;;3.20;;
54247;SDS011;40161;39.768;2.722;2022-08-18T05:54:10;6.28;;;2.60;;
54247;SDS011;40161;39.768;2.722;2022-08-18T05:56:55;9.07;;;2.97;;
54247;SDS011;40161;39.768;2.722;2022-08-18T05:59:26;7.70;;;3.43;;
54247;SDS011;40161;39.768;2.722;2022-08-18T06:02:02;8.35;;;3.10;;
54247;SDS011;40161;39.768;2.722;2022-08-18T06:04:40;11.57;;;3.50;;
54247;SDS011;40161;39.768;2.722;2022-08-18T06:07:08;9.55;;;3.97;;
54247;SDS011;40161;39.768;2.722;2022-08-18T06:09:45;10.27;;;4.93;;
54247;SDS011;40161;39.768;2.722;2022-08-18T06:12:27;10.50;;;4.00;;
54247;SDS011;40161;39.768;2.722;2022-08-18T06:15:01;6.32;;;3.17;;
54247;SDS011;40161;39.768;2.722;2022-08-18T06:26:31;8.40;;;3.78;;
54247;SDS011;40161;39.768;2.722;2022-08-18T06:29:15;10.52;;;5.05;;
54247;SDS011;40161;39.768;2.722;2022-08-18T06:41:02;10.43;;;4.93;;
54247;SDS011;40161;39.768;2.722;2022-08-18T06:44:50;14.68;;;5.60;;
54247;SDS011;40161;39.768;2.722;2022-08-18T06:52:28;9.93;;;3.60;;
54247;SDS011;40161;39.768;2.722;2022-08-18T06:54:57;8.50;;;3.60;;
54247;SDS011;40161;39.768;2.722;2022-08-18T06:57:34;9.23;;;3.92;;
54247;SDS011;40161;39.768;2.722;2022-08-18T07:00:20;10.95;;;4.18;;
54247;SDS011;40161;39.768;2.722;2022-08-18T07:02:54;9.75;;;4.30;;
54247;SDS011;40161;39.768;2.722;2022-08-18T07:06:28;9.30;;;3.92;;
54247;SDS011;40161;39.768;2.722;2022-08-18T07:08:43;7.32;;;3.92;;
54247;SDS011;40161;39.768;2.722;2022-08-18T07:11:16;10.57;;;4.30;;
54247;SDS011;40161;39.768;2.722;2022-08-18T07:13:45;8.30;;;3.97;;
54247;SDS011;40161;39.768;2.722;2022-08-18T07:16:16;8.63;;;3.83;;
54247;SDS011;40161;39.768;2.722;2022-08-18T07:18:42;8.57;;;4.00;;
54247;SDS011;40161;39.768;2.722;2022-08-18T07:24:34;7.90;;;3.80;;
54247;SDS011;40161;39.768;2.722;2022-08-18T07:27:06;9.68;;;4.00;;
54247;SDS011;40161;39.768;2.722;2022-08-18T07:29:33;8.45;;;4.32;;
54247;SDS011;40161;39.768;2.722;2022-08-18T07:32:17;11.73;;;4.65;;
54247;SDS011;40161;39.768;2.722;2022-08-18T07:34:47;8.85;;;3.83;;
54247;SDS011;40161;39.768;2.722;2022-08-18T07:39:56;6.72;;;3.90;;
54247;SDS011;40161;39.768;2.722;2022-08-18T07:44:59;8.05;;;3.90;;
54247;SDS011;40161;39.768;2.722;2022-08-18T07:47:37;6.45;;;3.35;;
54247;SDS011;40161;39.768;2.722;2022-08-18T07:50:15;14.07;;;6.10;;
54247;SDS011;40161;39.768;2.722;2022-08-18T07:52:46;8.65;;;3.67;;
54247;SDS011;40161;39.768;2.722;2022-08-18T07:55:30;6.57;;;3.50;;
54247;SDS011;40161;39.768;2.722;2022-08-18T07:58:11;8.18;;;3.40;;
54247;SDS011;40161;39.768;2.722;2022-08-18T08:03:29;8.07;;;3.60;;
54247;SDS011;40161;39.768;2.722;2022-08-18T08:22:30;7.45;;;3.10;;
54247;SDS011;40161;39.768;2.722;2022-08-18T08:25:23;5.40;;;2.60;;
54247;SDS011;40161;39.768;2.722;2022-08-18T08:30:40;10.82;;;4.00;;
54247;SDS011;40161;39.768;2.722;2022-08-18T08:33:32;5.85;;;2.75;;
54247;SDS011;40161;39.768;2.722;2022-08-18T08:38:45;6.82;;;2.92;;
54247;SDS011;40161;39.768;2.722;2022-08-18T08:41:24;8.50;;;2.70;;
54247;SDS011;40161;39.768;2.722;2022-08-18T08:44:02;7.75;;;2.88;;
54247;SDS011;40161;39.768;2.722;2022-08-18T08:46:32;7.78;;;3.35;;
54247;SDS011;40161;39.768;2.722;2022-08-18T08:49:24;6.13;;;2.95;;
54247;SDS011;40161;39.768;2.722;2022-08-18T08:52:23;19.65;;;4.07;;
54247;SDS011;40161;39.768;2.722;2022-08-18T08:57:20;6.65;;;3.08;;
54247;SDS011;40161;39.768;2.722;2022-08-18T08:59:50;8.17;;;3.23;;
54247;SDS011;40161;39.768;2.722;2022-08-18T09:02:36;8.98;;;3.13;;
54247;SDS011;40161;39.768;2.722;2022-08-18T09:05:16;5.75;;;3.00;;
54247;SDS011;40161;39.768;2.722;2022-08-18T09:22:02;10.85;;;3.65;;
54247;SDS011;40161;39.768;2.722;2022-08-18T09:24:49;5.45;;;3.40;;
54247;SDS011;40161;39.768;2.722;2022-08-18T09:30:03;7.93;;;4.35;;
54247;SDS011;40161;39.768;2.722;2022-08-18T09:32:38;7.55;;;3.88;;
54247;SDS011;40161;39.768;2.722;2022-08-18T09:35:22;7.63;;;4.18;;
54247;SDS011;40161;39.768;2.722;2022-08-18T09:37:58;9.23;;;4.30;;
54247;SDS011;40161;39.768;2.722;2022-08-18T09:40:51;7.72;;;4.28;;
54247;SDS011;40161;39.768;2.722;2022-08-18T09:44:03;8.10;;;4.25;;
54247;SDS011;40161;39.768;2.722;2022-08-18T09:51:46;7.05;;;4.10;;
54247;SDS011;40161;39.768;2.722;2022-08-18T09:54:17;10.77;;;4.50;;
54247;SDS011;40161;39.768;2.722;2022-08-18T10:02:02;6.70;;;4.20;;
54247;SDS011;40161;39.768;2.722;2022-08-18T10:04:50;8.27;;;4.68;;
54247;SDS011;40161;39.768;2.722;2022-08-18T10:07:40;7.43;;;4.38;;
54247;SDS011;40161;39.768;2.722;2022-08-18T10:21:29;8.75;;;5.43;;
54247;SDS011;40161;39.768;2.722;2022-08-18T10:24:20;7.55;;;4.57;;
54247;SDS011;40161;39.768;2.722;2022-08-18T10:37:00;7.53;;;3.83;;
54247;SDS011;40161;39.768;2.722;2022-08-18T10:42:09;8.63;;;4.45;;
54247;SDS011;40161;39.768;2.722;2022-08-18T10:44:46;12.02;;;4.47;;
54247;SDS011;40161;39.768;2.722;2022-08-18T10:47:20;7.20;;;3.75;;
54247;SDS011;40161;39.768;2.722;2022-08-18T10:49:48;7.15;;;3.42;;
54247;SDS011;40161;39.768;2.722;2022-08-18T10:52:30;7.13;;;3.45;;
54247;SDS011;40161;39.768;2.722;2022-08-18T10:55:27;5.35;;;3.33;;
54247;SDS011;40161;39.768;2.722;2022-08-18T11:06:20;6.82;;;2.22;;
54247;SDS011;40161;39.768;2.722;2022-08-18T11:08:49;6.97;;;1.80;;
54247;SDS011;40161;39.768;2.722;2022-08-18T11:11:22;4.90;;;1.55;;
54247;SDS011;40161;39.768;2.722;2022-08-18T11:13:54;5.35;;;1.60;;
54247;SDS011;40161;39.768;2.722;2022-08-18T11:19:38;5.63;;;1.70;;
54247;SDS011;40161;39.768;2.722;2022-08-18T11:22:05;5.70;;;1.70;;
54247;SDS011;40161;39.768;2.722;2022-08-18T11:24:46;4.57;;;1.55;;
54247;SDS011;40161;39.768;2.722;2022-08-18T11:27:19;6.00;;;1.60;;
54247;SDS011;40161;39.768;2.722;2022-08-18T11:29:47;5.00;;;1.40;;
54247;SDS011;40161;39.768;2.722;2022-08-18T11:42:38;5.55;;;1.60;;
54247;SDS011;40161;39.768;2.722;2022-08-18T11:58:47;4.88;;;1.65;;
54247;SDS011;40161;39.768;2.722;2022-08-18T12:03:56;4.53;;;1.92;;
54247;SDS011;40161;39.768;2.722;2022-08-18T12:12:02;3.97;;;1.10;;
54247;SDS011;40161;39.768;2.722;2022-08-18T12:14:57;4.78;;;1.33;;
54247;SDS011;40161;39.768;2.722;2022-08-18T12:17:29;5.45;;;1.20;;
54247;SDS011;40161;39.768;2.722;2022-08-18T12:19:56;2.75;;;1.20;;
54247;SDS011;40161;39.768;2.722;2022-08-18T12:22:25;6.28;;;1.10;;
54247;SDS011;40161;39.768;2.722;2022-08-18T12:24:55;5.68;;;1.40;;
54247;SDS011;40161;39.768;2.722;2022-08-18T12:27:22;5.55;;;1.10;;
54247;SDS011;40161;39.768;2.722;2022-08-18T12:29:49;5.03;;;1.05;;
54247;SDS011;40161;39.768;2.722;2022-08-18T12:32:17;3.63;;;1.13;;
54247;SDS011;40161;39.768;2.722;2022-08-18T12:34:44;3.97;;;1.10;;
54247;SDS011;40161;39.768;2.722;2022-08-18T12:37:11;3.85;;;1.05;;
54247;SDS011;40161;39.768;2.722;2022-08-18T12:39:40;5.53;;;1.10;;
54247;SDS011;40161;39.768;2.722;2022-08-18T12:42:07;4.32;;;1.30;;
54247;SDS011;40161;39.768;2.722;2022-08-18T12:44:33;6.18;;;1.27;;
54247;SDS011;40161;39.768;2.722;2022-08-18T12:47:00;2.60;;;0.90;;
54247;SDS011;40161;39.768;2.722;2022-08-18T12:49:26;2.60;;;1.17;;
54247;SDS011;40161;39.768;2.722;2022-08-18T12:51:52;3.50;;;1.00;;
54247;SDS011;40161;39.768;2.722;2022-08-18T12:54:19;6.70;;;1.20;;
54247;SDS011;40161;39.768;2.722;2022-08-18T12:56:45;5.60;;;1.38;;
54247;SDS011;40161;39.768;2.722;2022-08-18T12:59:14;4.55;;;1.10;;
54247;SDS011;40161;39.768;2.722;2022-08-18T13:01:39;6.65;;;1.30;;
54247;SDS011;40161;39.768;2.722;2022-08-18T13:04:05;4.60;;;1.15;;
54247;SDS011;40161;39.768;2.722;2022-08-18T13:06:32;4.10;;;1.17;;
54247;SDS011;40161;39.768;2.722;2022-08-18T13:09:00;4.18;;;1.17;;
54247;SDS011;40161;39.768;2.722;2022-08-18T13:11:25;5.05;;;1.58;;
54247;SDS011;40161;39.768;2.722;2022-08-18T13:13:51;4.05;;;1.17;;
54247;SDS011;40161;39.768;2.722;2022-08-18T13:16:18;7.30;;;1.60;;
54247;SDS011;40161;39.768;2.722;2022-08-18T13:18:44;5.43;;;1.52;;
54247;SDS011;40161;39.768;2.722;2022-08-18T13:21:11;4.05;;;1.27;;
54247;SDS011;40161;39.768;2.722;2022-08-18T13:23:38;6.57;;;1.30;;
54247;SDS011;40161;39.768;2.722;2022-08-18T13:26:05;4.85;;;1.33;;
54247;SDS011;40161;39.768;2.722;2022-08-18T13:28:33;4.68;;;1.10;;
54247;SDS011;40161;39.768;2.722;2022-08-18T13:31:01;4.15;;;1.15;;
54247;SDS011;40161;39.768;2.722;2022-08-18T13:33:29;4.78;;;1.35;;
54247;SDS011;40161;39.768;2.722;2022-08-18T13:35:57;4.70;;;1.20;;
54247;SDS011;40161;39.768;2.722;2022-08-18T13:38:22;5.35;;;1.27;;
54247;SDS011;40161;39.768;2.722;2022-08-18T13:40:49;4.90;;;1.20;;
54247;SDS011;40161;39.768;2.722;2022-08-18T13:43:16;5.15;;;1.10;;
54247;SDS011;40161;39.768;2.722;2022-08-18T13:45:44;4.05;;;0.90;;
54247;SDS011;40161;39.768;2.722;2022-08-18T13:48:13;4.18;;;1.20;;
54247;SDS011;40161;39.768;2.722;2022-08-18T13:50:39;4.43;;;0.98;;
54247;SDS011;40161;39.768;2.722;2022-08-18T13:53:07;3.88;;;1.08;;
54247;SDS011;40161;39.768;2.722;2022-08-18T13:55:44;3.40;;;1.23;;
54247;SDS011;40161;39.768;2.722;2022-08-18T13:58:11;4.72;;;1.20;;
54247;SDS011;40161;39.768;2.722;2022-08-18T14:00:37;3.35;;;0.98;;
54247;SDS011;40161;39.768;2.722;2022-08-18T14:03:03;5.00;;;1.30;;
54247;SDS011;40161;39.768;2.722;2022-08-18T14:05:30;5.07;;;1.02;;
54247;SDS011;40161;39.768;2.722;2022-08-18T14:07:57;4.70;;;1.20;;
54247;SDS011;40161;39.768;2.722;2022-08-18T14:10:22;5.72;;;1.27;;
54247;SDS011;40161;39.768;2.722;2022-08-18T14:12:54;3.70;;;1.20;;
54247;SDS011;40161;39.768;2.722;2022-08-18T14:17:47;4.55;;;1.27;;
54247;SDS011;40161;39.768;2.722;2022-08-18T14:20:13;6.78;;;1.35;;
54247;SDS011;40161;39.768;2.722;2022-08-18T14:22:58;6.47;;;1.42;;
54247;SDS011;40161;39.768;2.722;2022-08-18T14:25:43;5.22;;;1.27;;
54247;SDS011;40161;39.768;2.722;2022-08-18T14:28:28;5.53;;;1.30;;
54247;SDS011;40161;39.768;2.722;2022-08-18T14:30:58;3.95;;;1.13;;
54247;SDS011;40161;39.768;2.722;2022-08-18T14:33:26;3.63;;;1.00;;
54247;SDS011;40161;39.768;2.722;2022-08-18T14:35:53;4.57;;;1.10;;
54247;SDS011;40161;39.768;2.722;2022-08-18T14:38:19;4.32;;;1.00;;
54247;SDS011;40161;39.768;2.722;2022-08-18T14:40:45;4.32;;;0.90;;
54247;SDS011;40161;39.768;2.722;2022-08-18T14:43:13;4.97;;;1.13;;
54247;SDS011;40161;39.768;2.722;2022-08-18T14:45:41;5.00;;;1.15;;
54247;SDS011;40161;39.768;2.722;2022-08-18T14:48:15;3.88;;;1.17;;
54247;SDS011;40161;39.768;2.722;2022-08-18T14:50:44;4.60;;;1.10;;
54247;SDS011;40161;39.768;2.722;2022-08-18T14:53:13;3.05;;;1.05;;
54247;SDS011;40161;39.768;2.722;2022-08-18T14:55:39;5.05;;;1.20;;
54247;SDS011;40161;39.768;2.722;2022-08-18T14:58:05;2.90;;;0.90;;
54247;SDS011;40161;39.768;2.722;2022-08-18T15:00:31;4.53;;;1.23;;
54247;SDS011;40161;39.768;2.722;2022-08-18T15:02:57;4.22;;;1.10;;
54247;SDS011;40161;39.768;2.722;2022-08-18T15:05:23;4.28;;;1.27;;
54247;SDS011;40161;39.768;2.722;2022-08-18T15:07:48;4.95;;;1.15;;
54247;SDS011;40161;39.768;2.722;2022-08-18T15:10:14;3.45;;;1.08;;
54247;SDS011;40161;39.768;2.722;2022-08-18T15:12:41;4.75;;;1.00;;
54247;SDS011;40161;39.768;2.722;2022-08-18T15:15:09;2.53;;;0.90;;
54247;SDS011;40161;39.768;2.722;2022-08-18T15:17:39;6.18;;;1.10;;
54247;SDS011;40161;39.768;2.722;2022-08-18T15:20:05;5.18;;;1.10;;
54247;SDS011;40161;39.768;2.722;2022-08-18T15:22:40;4.65;;;1.17;;
54247;SDS011;40161;39.768;2.722;2022-08-18T15:25:26;2.78;;;1.00;;
54247;SDS011;40161;39.768;2.722;2022-08-18T15:28:20;3.00;;;1.20;;
54247;SDS011;40161;39.768;2.722;2022-08-18T15:30:48;2.95;;;0.75;;
54247;SDS011;40161;39.768;2.722;2022-08-18T15:33:15;4.53;;;1.15;;
54247;SDS011;40161;39.768;2.722;2022-08-18T15:35:43;3.60;;;1.10;;
54247;SDS011;40161;39.768;2.722;2022-08-18T15:38:11;3.00;;;0.98;;
54247;SDS011;40161;39.768;2.722;2022-08-18T15:40:45;4.72;;;0.85;;
54247;SDS011;40161;39.768;2.722;2022-08-18T15:43:13;2.97;;;1.00;;
54247;SDS011;40161;39.768;2.722;2022-08-18T15:45:40;4.45;;;0.82;;
54247;SDS011;40161;39.768;2.722;2022-08-18T15:48:08;5.18;;;0.98;;
54247;SDS011;40161;39.768;2.722;2022-08-18T15:50:35;4.28;;;1.10;;
54247;SDS011;40161;39.768;2.722;2022-08-18T15:53:02;3.03;;;0.82;;
54247;SDS011;40161;39.768;2.722;2022-08-18T15:55:30;2.50;;;1.30;;
54247;SDS011;40161;39.768;2.722;2022-08-18T15:57:57;2.75;;;0.80;;
54247;SDS011;40161;39.768;2.722;2022-08-18T16:00:25;5.30;;;1.00;;
54247;SDS011;40161;39.768;2.722;2022-08-18T16:02:55;5.50;;;1.27;;
54247;SDS011;40161;39.768;2.722;2022-08-18T16:06:11;6.15;;;1.10;;
54247;SDS011;40161;39.768;2.722;2022-08-18T16:08:16;4.28;;;1.00;;
54247;SDS011;40161;39.768;2.722;2022-08-18T16:10:42;4.25;;;1.00;;
54247;SDS011;40161;39.768;2.722;2022-08-18T16:13:09;3.80;;;0.88;;
54247;SDS011;40161;39.768;2.722;2022-08-18T16:15:36;5.43;;;0.95;;
54247;SDS011;40161;39.768;2.722;2022-08-18T16:18:03;4.82;;;1.20;;
54247;SDS011;40161;39.768;2.722;2022-08-18T16:20:30;4.05;;;1.10;;
54247;SDS011;40161;39.768;2.722;2022-08-18T16:22:56;3.28;;;1.00;;
54247;SDS011;40161;39.768;2.722;2022-08-18T16:25:22;4.90;;;1.02;;
54247;SDS011;40161;39.768;2.722;2022-08-18T16:27:47;3.88;;;1.02;;
54247;SDS011;40161;39.768;2.722;2022-08-18T16:30:14;3.67;;;0.90;;
54247;SDS011;40161;39.768;2.722;2022-08-18T16:32:42;6.35;;;1.58;;
54247;SDS011;40161;39.768;2.722;2022-08-18T16:35:09;3.63;;;0.88;;
54247;SDS011;40161;39.768;2.722;2022-08-18T16:37:35;9.77;;;1.33;;
54247;SDS011;40161;39.768;2.722;2022-08-18T16:40:00;3.60;;;1.00;;
54247;SDS011;40161;39.768;2.722;2022-08-18T16:42:26;2.95;;;1.00;;
54247;SDS011;40161;39.768;2.722;2022-08-18T16:44:56;4.75;;;0.90;;
54247;SDS011;40161;39.768;2.722;2022-08-18T16:47:26;3.10;;;1.00;;
54247;SDS011;40161;39.768;2.722;2022-08-18T16:49:52;3.03;;;1.10;;
54247;SDS011;40161;39.768;2.722;2022-08-18T16:52:17;3.10;;;0.95;;
54247;SDS011;40161;39.768;2.722;2022-08-18T16:54:44;4.30;;;1.00;;
54247;SDS011;40161;39.768;2.722;2022-08-18T16:57:11;3.80;;;1.40;;
54247;SDS011;40161;39.768;2.722;2022-08-18T16:59:37;3.88;;;1.00;;
54247;SDS011;40161;39.768;2.722;2022-08-18T17:02:21;5.50;;;1.48;;
54247;SDS011;40161;39.768;2.722;2022-08-18T17:05:06;3.80;;;1.00;;
54247;SDS011;40161;39.768;2.722;2022-08-18T17:07:33;3.50;;;1.20;;
54247;SDS011;40161;39.768;2.722;2022-08-18T17:10:01;6.22;;;1.60;;
54247;SDS011;40161;39.768;2.722;2022-08-18T17:12:29;3.70;;;1.02;;
54247;SDS011;40161;39.768;2.722;2022-08-18T17:14:55;4.32;;;1.40;;
54247;SDS011;40161;39.768;2.722;2022-08-18T17:17:21;3.67;;;1.00;;
54247;SDS011;40161;39.768;2.722;2022-08-18T17:19:47;5.75;;;1.10;;
54247;SDS011;40161;39.768;2.722;2022-08-18T17:22:13;2.42;;;0.95;;
54247;SDS011;40161;39.768;2.722;2022-08-18T17:24:40;4.07;;;1.10;;
54247;SDS011;40161;39.768;2.722;2022-08-18T17:27:17;4.47;;;1.10;;
54247;SDS011;40161;39.768;2.722;2022-08-18T17:29:50;2.70;;;1.10;;
54247;SDS011;40161;39.768;2.722;2022-08-18T17:34:46;4.65;;;1.38;;
54247;SDS011;40161;39.768;2.722;2022-08-18T17:37:16;4.60;;;1.10;;
54247;SDS011;40161;39.768;2.722;2022-08-18T17:39:56;2.22;;;0.85;;
54247;SDS011;40161;39.768;2.722;2022-08-18T17:42:29;4.93;;;0.95;;
54247;SDS011;40161;39.768;2.722;2022-08-18T17:44:59;3.53;;;0.93;;
54247;SDS011;40161;39.768;2.722;2022-08-18T17:47:37;2.40;;;0.82;;
54247;SDS011;40161;39.768;2.722;2022-08-18T17:50:25;2.33;;;0.77;;
54247;SDS011;40161;39.768;2.722;2022-08-18T17:53:11;3.90;;;1.00;;
54247;SDS011;40161;39.768;2.722;2022-08-18T17:55:46;4.68;;;0.90;;
54247;SDS011;40161;39.768;2.722;2022-08-18T17:58:28;3.42;;;1.17;;
54247;SDS011;40161;39.768;2.722;2022-08-18T18:01:08;5.15;;;1.10;;
54247;SDS011;40161;39.768;2.722;2022-08-18T18:03:35;3.70;;;1.10;;
54247;SDS011;40161;39.768;2.722;2022-08-18T18:06:05;3.33;;;0.82;;
54247;SDS011;40161;39.768;2.722;2022-08-18T18:08:48;2.92;;;0.98;;
54247;SDS011;40161;39.768;2.722;2022-08-18T18:11:27;3.92;;;1.20;;
54247;SDS011;40161;39.768;2.722;2022-08-18T18:14:23;4.22;;;1.10;;
54247;SDS011;40161;39.768;2.722;2022-08-18T18:19:49;5.63;;;1.20;;
54247;SDS011;40161;39.768;2.722;2022-08-18T18:22:21;5.35;;;1.30;;
54247;SDS011;40161;39.768;2.722;2022-08-18T18:24:49;2.88;;;1.10;;
54247;SDS011;40161;39.768;2.722;2022-08-18T18:27:24;6.65;;;1.40;;
54247;SDS011;40161;39.768;2.722;2022-08-18T18:32:22;2.45;;;1.00;;
54247;SDS011;40161;39.768;2.722;2022-08-18T18:37:39;4.03;;;1.00;;
54247;SDS011;40161;39.768;2.722;2022-08-18T18:40:19;5.35;;;1.00;;
54247;SDS011;40161;39.768;2.722;2022-08-18T18:42:48;3.58;;;1.00;;
54247;SDS011;40161;39.768;2.722;2022-08-18T18:45:24;2.03;;;0.80;;
54247;SDS011;40161;39.768;2.722;2022-08-18T18:50:37;4.60;;;1.55;;
54247;SDS011;40161;39.768;2.722;2022-08-18T18:56:08;4.07;;;1.15;;
54247;SDS011;40161;39.768;2.722;2022-08-18T18:59:02;2.58;;;0.90;;
54247;SDS011;40161;39.768;2.722;2022-08-18T19:04:31;2.55;;;1.10;;
54247;SDS011;40161;39.768;2.722;2022-08-18T19:09:47;4.07;;;1.33;;
54247;SDS011;40161;39.768;2.722;2022-08-18T19:12:22;4.38;;;1.25;;
54247;SDS011;40161;39.768;2.722;2022-08-18T19:15:01;5.00;;;1.20;;
54247;SDS011;40161;39.768;2.722;2022-08-18T19:20:17;3.28;;;1.17;;
54247;SDS011;40161;39.768;2.722;2022-08-18T19:22:49;5.82;;;1.30;;